sensor_id;sensor_type;location;lat;lon;timestamp;pressure;altitude;pressure_sealevel;temperature;humidity
17260;BME280;8746;49.230;9.220;2023-04-24T00:00:30;98867.09;;;11.19;95.16
17260;BME280;8746;49.230;9.220;2023-04-24T00:02:56;98868.13;;;11.31;94.17
17260;BME280;8746;49.230;9.220;2023-04-24T00:05:23;98872.88;;;11.41;93.66
17260;BME280;8746;49.230;9.220;2023-04-24T00:07:49;98861.75;;;11.35;92.59
17260;BME280;8746;49.230;9.220;2023-04-24T00:10:18;98862.69;;;11.34;91.95
17260;BME280;8746;49.230;9.220;2023-04-24T00:12:43;98856.25;;;11.24;92.22
17260;BME280;8746;49.230;9.220;2023-04-24T00:15:09;98861.44;;;11.26;92.51
17260;BME280;8746;49.230;9.220;2023-04-24T00:17:34;98856.44;;;11.21;93.83
17260;BME280;8746;49.230;9.220;2023-04-24T00:20:00;98845.31;;;11.30;92.79
17260;BME280;8746;49.230;9.220;2023-04-24T00:22:28;98850.03;;;11.25;93.43
17260;BME280;8746;49.230;9.220;2023-04-24T00:24:53;98856.91;;;11.28;93.98
17260;BME280;8746;49.230;9.220;2023-04-24T00:27:19;98851.81;;;11.25;94.10
17260;BME280;8746;49.230;9.220;2023-04-24T00:29:45;98852.50;;;11.43;92.60
17260;BME280;8746;49.230;9.220;2023-04-24T00:32:10;98855.13;;;11.28;92.38
17260;BME280;8746;49.230;9.220;2023-04-24T00:34:36;98850.59;;;11.30;92.12
17260;BME280;8746;49.230;9.220;2023-04-24T00:37:01;98852.66;;;11.25;92.83
17260;BME280;8746;49.230;9.220;2023-04-24T00:39:26;98856.06;;;11.27;92.31
17260;BME280;8746;49.230;9.220;2023-04-24T00:41:52;98856.84;;;11.29;91.81
17260;BME280;8746;49.230;9.220;2023-04-24T00:44:18;98857.75;;;11.14;93.58
17260;BME280;8746;49.230;9.220;2023-04-24T00:46:43;98848.50;;;11.06;94.45
17260;BME280;8746;49.230;9.220;2023-04-24T00:49:09;98850.38;;;11.04;95.20
17260;BME280;8746;49.230;9.220;2023-04-24T00:51:34;98859.19;;;11.19;94.27
17260;BME280;8746;49.230;9.220;2023-04-24T00:54:00;98858.16;;;11.22;94.08
17260;BME280;8746;49.230;9.220;2023-04-24T00:56:26;98854.44;;;11.10;93.69
17260;BME280;8746;49.230;9.220;2023-04-24T00:58:51;98855.78;;;11.17;94.09
17260;BME280;8746;49.230;9.220;2023-04-24T01:01:19;98857.94;;;11.25;93.81
17260;BME280;8746;49.230;9.220;2023-04-24T01:03:46;98852.50;;;11.28;93.84
17260;BME280;8746;49.230;9.220;2023-04-24T01:06:12;98850.88;;;11.11;94.76
17260;BME280;8746;49.230;9.220;2023-04-24T01:08:39;98840.03;;;11.16;93.89
17260;BME280;8746;49.230;9.220;2023-04-24T01:11:05;98833.50;;;11.07;94.75
17260;BME280;8746;49.230;9.220;2023-04-24T01:13:32;98832.13;;;11.16;94.00
17260;BME280;8746;49.230;9.220;2023-04-24T01:15:58;98833.78;;;11.17;93.79
17260;BME280;8746;49.230;9.220;2023-04-24T01:18:23;98829.56;;;11.29;93.92
17260;BME280;8746;49.230;9.220;2023-04-24T01:20:51;98840.88;;;11.16;95.13
17260;BME280;8746;49.230;9.220;2023-04-24T01:23:18;98839.28;;;11.14;95.27
17260;BME280;8746;49.230;9.220;2023-04-24T01:25:44;98841.13;;;10.97;97.20
17260;BME280;8746;49.230;9.220;2023-04-24T01:28:09;98840.91;;;10.86;99.89
17260;BME280;8746;49.230;9.220;2023-04-24T01:30:35;98841.13;;;10.83;100.00
17260;BME280;8746;49.230;9.220;2023-04-24T01:33:00;98838.63;;;10.80;100.00
17260;BME280;8746;49.230;9.220;2023-04-24T01:35:26;98819.03;;;10.69;100.00
17260;BME280;8746;49.230;9.220;2023-04-24T01:37:51;98829.75;;;10.66;100.00
17260;BME280;8746;49.230;9.220;2023-04-24T01:40:17;98816.56;;;10.66;100.00
17260;BME280;8746;49.230;9.220;2023-04-24T01:42:42;98818.72;;;10.60;100.00
17260;BME280;8746;49.230;9.220;2023-04-24T01:45:10;98814.47;;;10.57;100.00
17260;BME280;8746;49.230;9.220;2023-04-24T01:47:36;98823.91;;;10.61;100.00
17260;BME280;8746;49.230;9.220;2023-04-24T01:50:02;98825.66;;;10.61;100.00
17260;BME280;8746;49.230;9.220;2023-04-24T01:52:27;98834.09;;;10.67;100.00
17260;BME280;8746;49.230;9.220;2023-04-24T01:54:56;98821.72;;;10.68;100.00
17260;BME280;8746;49.230;9.220;2023-04-24T01:57:24;98819.78;;;10.71;100.00
17260;BME280;8746;49.230;9.220;2023-04-24T01:59:51;98826.38;;;10.79;100.00
17260;BME280;8746;49.230;9.220;2023-04-24T02:02:16;98824.41;;;10.82;100.00
17260;BME280;8746;49.230;9.220;2023-04-24T02:04:41;98809.53;;;10.81;100.00
17260;BME280;8746;49.230;9.220;2023-04-24T02:07:07;98807.75;;;10.82;100.00
17260;BME280;8746;49.230;9.220;2023-04-24T02:09:33;98808.78;;;10.79;100.00
17260;BME280;8746;49.230;9.220;2023-04-24T02:11:58;98807.38;;;10.88;100.00
17260;BME280;8746;49.230;9.220;2023-04-24T02:14:23;98802.25;;;10.70;99.63
17260;BME280;8746;49.230;9.220;2023-04-24T02:16:49;98804.13;;;10.68;100.00
17260;BME280;8746;49.230;9.220;2023-04-24T02:19:14;98802.53;;;10.66;100.00
17260;BME280;8746;49.230;9.220;2023-04-24T02:21:41;98791.69;;;10.70;99.74
17260;BME280;8746;49.230;9.220;2023-04-24T02:24:06;98795.47;;;10.66;100.00
17260;BME280;8746;49.230;9.220;2023-04-24T02:26:31;98803.78;;;10.74;100.00
17260;BME280;8746;49.230;9.220;2023-04-24T02:28:57;98794.16;;;10.73;100.00
17260;BME280;8746;49.230;9.220;2023-04-24T02:31:22;98802.84;;;10.76;100.00
17260;BME280;8746;49.230;9.220;2023-04-24T02:33:48;98805.38;;;10.77;99.40
17260;BME280;8746;49.230;9.220;2023-04-24T02:36:13;98802.84;;;10.76;99.02
17260;BME280;8746;49.230;9.220;2023-04-24T02:38:39;98810.75;;;10.76;100.00
17260;BME280;8746;49.230;9.220;2023-04-24T02:41:04;98808.84;;;10.78;99.39
17260;BME280;8746;49.230;9.220;2023-04-24T02:43:32;98812.47;;;10.91;98.84
17260;BME280;8746;49.230;9.220;2023-04-24T02:45:57;98808.94;;;10.76;100.00
17260;BME280;8746;49.230;9.220;2023-04-24T02:48:23;98802.91;;;10.60;100.00
17260;BME280;8746;49.230;9.220;2023-04-24T02:50:49;98803.16;;;10.55;100.00
17260;BME280;8746;49.230;9.220;2023-04-24T02:53:14;98801.56;;;10.52;100.00
17260;BME280;8746;49.230;9.220;2023-04-24T02:55:39;98804.66;;;10.59;99.29
17260;BME280;8746;49.230;9.220;2023-04-24T02:58:05;98801.56;;;10.52;100.00
17260;BME280;8746;49.230;9.220;2023-04-24T03:00:31;98808.06;;;10.61;98.76
17260;BME280;8746;49.230;9.220;2023-04-24T03:02:56;98803.06;;;10.56;99.74
17260;BME280;8746;49.230;9.220;2023-04-24T03:05:22;98812.94;;;10.53;99.93
17260;BME280;8746;49.230;9.220;2023-04-24T03:07:47;98805.25;;;10.64;100.00
17260;BME280;8746;49.230;9.220;2023-04-24T03:10:13;98808.25;;;10.58;99.55
17260;BME280;8746;49.230;9.220;2023-04-24T03:12:38;98804.31;;;10.65;100.00
17260;BME280;8746;49.230;9.220;2023-04-24T03:15:04;98802.06;;;10.73;100.00
17260;BME280;8746;49.230;9.220;2023-04-24T03:17:29;98798.22;;;10.79;99.12
17260;BME280;8746;49.230;9.220;2023-04-24T03:19:55;98791.13;;;10.65;100.00
17260;BME280;8746;49.230;9.220;2023-04-24T03:22:20;98791.97;;;10.66;100.00
17260;BME280;8746;49.230;9.220;2023-04-24T03:24:45;98788.84;;;10.59;100.00
17260;BME280;8746;49.230;9.220;2023-04-24T03:27:11;98785.69;;;10.68;99.72
17260;BME280;8746;49.230;9.220;2023-04-24T03:29:36;98773.22;;;10.70;98.95
17260;BME280;8746;49.230;9.220;2023-04-24T03:32:01;98784.44;;;10.60;100.00
17260;BME280;8746;49.230;9.220;2023-04-24T03:34:27;98792.72;;;10.53;100.00
17260;BME280;8746;49.230;9.220;2023-04-24T03:36:53;98794.03;;;10.61;100.00
17260;BME280;8746;49.230;9.220;2023-04-24T03:39:18;98786.88;;;10.63;100.00
17260;BME280;8746;49.230;9.220;2023-04-24T03:41:44;98795.06;;;10.58;100.00
17260;BME280;8746;49.230;9.220;2023-04-24T03:44:09;98800.00;;;10.48;100.00
17260;BME280;8746;49.230;9.220;2023-04-24T03:46:34;98795.41;;;10.52;100.00
17260;BME280;8746;49.230;9.220;2023-04-24T03:49:00;98796.47;;;10.33;100.00
17260;BME280;8746;49.230;9.220;2023-04-24T03:51:25;98792.78;;;10.36;100.00
17260;BME280;8746;49.230;9.220;2023-04-24T03:53:52;98801.50;;;10.38;100.00
17260;BME280;8746;49.230;9.220;2023-04-24T03:56:18;98816.28;;;10.40;100.00
17260;BME280;8746;49.230;9.220;2023-04-24T03:58:43;98820.88;;;10.21;100.00
17260;BME280;8746;49.230;9.220;2023-04-24T04:01:08;98826.44;;;10.00;100.00
17260;BME280;8746;49.230;9.220;2023-04-24T04:03:34;98839.16;;;9.92;100.00
17260;BME280;8746;49.230;9.220;2023-04-24T04:05:59;98847.41;;;9.86;100.00
17260;BME280;8746;49.230;9.220;2023-04-24T04:08:25;98858.25;;;9.63;100.00
17260;BME280;8746;49.230;9.220;2023-04-24T04:10:51;98863.78;;;9.59;100.00
17260;BME280;8746;49.230;9.220;2023-04-24T04:13:16;98872.69;;;9.56;100.00
17260;BME280;8746;49.230;9.220;2023-04-24T04:15:42;98883.31;;;9.55;100.00
17260;BME280;8746;49.230;9.220;2023-04-24T04:18:07;98890.44;;;9.53;100.00
17260;BME280;8746;49.230;9.220;2023-04-24T04:20:33;98889.81;;;9.48;100.00
17260;BME280;8746;49.230;9.220;2023-04-24T04:22:59;98889.06;;;9.45;100.00
17260;BME280;8746;49.230;9.220;2023-04-24T04:25:24;98886.50;;;9.44;100.00
17260;BME280;8746;49.230;9.220;2023-04-24T04:27:49;98889.22;;;9.42;100.00
17260;BME280;8746;49.230;9.220;2023-04-24T04:30:16;98887.19;;;9.48;100.00
17260;BME280;8746;49.230;9.220;2023-04-24T04:32:41;98891.34;;;9.52;100.00
17260;BME280;8746;49.230;9.220;2023-04-24T04:35:06;98907.06;;;9.37;100.00
17260;BME280;8746;49.230;9.220;2023-04-24T04:37:33;98915.41;;;9.28;100.00
17260;BME280;8746;49.230;9.220;2023-04-24T04:39:59;98907.06;;;9.20;100.00
17260;BME280;8746;49.230;9.220;2023-04-24T04:42:25;98911.22;;;9.06;100.00
17260;BME280;8746;49.230;9.220;2023-04-24T04:44:50;98912.53;;;9.15;100.00
17260;BME280;8746;49.230;9.220;2023-04-24T04:47:16;98923.38;;;9.09;100.00
17260;BME280;8746;49.230;9.220;2023-04-24T04:49:42;98928.25;;;8.99;100.00
17260;BME280;8746;49.230;9.220;2023-04-24T04:52:08;98930.97;;;8.97;100.00
17260;BME280;8746;49.230;9.220;2023-04-24T04:54:34;98938.06;;;8.95;100.00
17260;BME280;8746;49.230;9.220;2023-04-24T04:56:59;98936.63;;;9.07;100.00
17260;BME280;8746;49.230;9.220;2023-04-24T04:59:25;98928.81;;;9.06;100.00
17260;BME280;8746;49.230;9.220;2023-04-24T05:01:51;98941.19;;;9.04;100.00
17260;BME280;8746;49.230;9.220;2023-04-24T05:04:16;98944.22;;;8.96;100.00
17260;BME280;8746;49.230;9.220;2023-04-24T05:06:41;98948.47;;;8.98;100.00
17260;BME280;8746;49.230;9.220;2023-04-24T05:09:07;98947.94;;;9.09;100.00
17260;BME280;8746;49.230;9.220;2023-04-24T05:11:32;98959.81;;;8.99;100.00
17260;BME280;8746;49.230;9.220;2023-04-24T05:13:57;98959.69;;;9.02;100.00
17260;BME280;8746;49.230;9.220;2023-04-24T05:16:23;98965.72;;;9.04;100.00
17260;BME280;8746;49.230;9.220;2023-04-24T05:18:48;98971.81;;;8.87;100.00
17260;BME280;8746;49.230;9.220;2023-04-24T05:21:13;98976.78;;;8.93;100.00
17260;BME280;8746;49.230;9.220;2023-04-24T05:23:39;98991.28;;;8.83;100.00
17260;BME280;8746;49.230;9.220;2023-04-24T05:26:04;98993.06;;;8.82;100.00
17260;BME280;8746;49.230;9.220;2023-04-24T05:28:30;98994.91;;;8.80;100.00
17260;BME280;8746;49.230;9.220;2023-04-24T05:30:55;98994.72;;;8.66;100.00
17260;BME280;8746;49.230;9.220;2023-04-24T05:33:21;99005.09;;;8.69;100.00
17260;BME280;8746;49.230;9.220;2023-04-24T05:35:47;99007.56;;;8.72;100.00
17260;BME280;8746;49.230;9.220;2023-04-24T05:38:13;99004.69;;;8.78;100.00
17260;BME280;8746;49.230;9.220;2023-04-24T05:40:39;99011.31;;;8.86;100.00
17260;BME280;8746;49.230;9.220;2023-04-24T05:43:04;99020.19;;;9.02;100.00
17260;BME280;8746;49.230;9.220;2023-04-24T05:45:30;99006.59;;;9.11;100.00
17260;BME280;8746;49.230;9.220;2023-04-24T05:47:55;99014.09;;;9.19;100.00
17260;BME280;8746;49.230;9.220;2023-04-24T05:50:21;99021.31;;;9.33;100.00
17260;BME280;8746;49.230;9.220;2023-04-24T05:52:46;99020.06;;;9.40;100.00
17260;BME280;8746;49.230;9.220;2023-04-24T05:55:11;99020.84;;;9.42;100.00
17260;BME280;8746;49.230;9.220;2023-04-24T05:57:37;99024.03;;;9.67;100.00
17260;BME280;8746;49.230;9.220;2023-04-24T06:00:03;99026.41;;;9.71;100.00
17260;BME280;8746;49.230;9.220;2023-04-24T06:02:30;99031.66;;;9.71;100.00
17260;BME280;8746;49.230;9.220;2023-04-24T06:04:58;99033.56;;;10.03;100.00
17260;BME280;8746;49.230;9.220;2023-04-24T06:07:24;99030.41;;;9.96;100.00
17260;BME280;8746;49.230;9.220;2023-04-24T06:09:51;99032.59;;;9.88;100.00
17260;BME280;8746;49.230;9.220;2023-04-24T06:12:17;99034.09;;;10.09;100.00
17260;BME280;8746;49.230;9.220;2023-04-24T06:14:42;99040.44;;;10.23;100.00
17260;BME280;8746;49.230;9.220;2023-04-24T06:17:08;99035.56;;;10.31;100.00
17260;BME280;8746;49.230;9.220;2023-04-24T06:19:33;99026.94;;;10.29;100.00
17260;BME280;8746;49.230;9.220;2023-04-24T06:21:58;99030.69;;;10.41;100.00
17260;BME280;8746;49.230;9.220;2023-04-24T06:24:27;99029.75;;;10.42;100.00
17260;BME280;8746;49.230;9.220;2023-04-24T06:26:52;99033.63;;;10.52;100.00
17260;BME280;8746;49.230;9.220;2023-04-24T06:29:18;99024.72;;;10.37;100.00
17260;BME280;8746;49.230;9.220;2023-04-24T06:31:43;99024.59;;;10.40;100.00
17260;BME280;8746;49.230;9.220;2023-04-24T06:34:08;99037.78;;;10.23;100.00
17260;BME280;8746;49.230;9.220;2023-04-24T06:36:34;99031.47;;;10.09;100.00
17260;BME280;8746;49.230;9.220;2023-04-24T06:39:01;99031.81;;;10.03;100.00
17260;BME280;8746;49.230;9.220;2023-04-24T06:41:27;99036.81;;;10.08;100.00
17260;BME280;8746;49.230;9.220;2023-04-24T06:43:53;99028.09;;;10.23;100.00
17260;BME280;8746;49.230;9.220;2023-04-24T06:46:18;99031.00;;;10.35;100.00
17260;BME280;8746;49.230;9.220;2023-04-24T06:48:43;99038.22;;;10.49;100.00
17260;BME280;8746;49.230;9.220;2023-04-24T06:51:09;99034.28;;;10.88;100.00
17260;BME280;8746;49.230;9.220;2023-04-24T06:53:35;99041.88;;;10.62;98.25
17260;BME280;8746;49.230;9.220;2023-04-24T06:56:00;99045.19;;;10.98;97.57
17260;BME280;8746;49.230;9.220;2023-04-24T06:58:26;99032.09;;;10.96;97.69
17260;BME280;8746;49.230;9.220;2023-04-24T07:00:51;99044.31;;;10.97;97.91
17260;BME280;8746;49.230;9.220;2023-04-24T07:03:16;99038.44;;;10.92;95.89
17260;BME280;8746;49.230;9.220;2023-04-24T07:05:42;99040.41;;;10.56;94.26
17260;BME280;8746;49.230;9.220;2023-04-24T07:08:07;99042.31;;;10.86;96.59
17260;BME280;8746;49.230;9.220;2023-04-24T07:10:33;99041.63;;;10.67;95.22
17260;BME280;8746;49.230;9.220;2023-04-24T07:13:01;99039.97;;;10.64;94.73
17260;BME280;8746;49.230;9.220;2023-04-24T07:15:26;99049.25;;;10.71;94.88
17260;BME280;8746;49.230;9.220;2023-04-24T07:17:52;99049.34;;;10.86;92.29
17260;BME280;8746;49.230;9.220;2023-04-24T07:20:17;99046.03;;;10.82;93.02
17260;BME280;8746;49.230;9.220;2023-04-24T07:22:43;99049.25;;;10.71;88.51
17260;BME280;8746;49.230;9.220;2023-04-24T07:25:08;99054.03;;;10.49;88.96
17260;BME280;8746;49.230;9.220;2023-04-24T07:27:34;99047.81;;;10.50;87.06
17260;BME280;8746;49.230;9.220;2023-04-24T07:30:00;99035.31;;;10.53;86.54
17260;BME280;8746;49.230;9.220;2023-04-24T07:32:25;99054.19;;;10.78;90.50
17260;BME280;8746;49.230;9.220;2023-04-24T07:34:51;99052.34;;;10.80;85.09
17260;BME280;8746;49.230;9.220;2023-04-24T07:37:16;99065.72;;;10.93;85.54
17260;BME280;8746;49.230;9.220;2023-04-24T07:39:41;99063.06;;;11.09;83.77
17260;BME280;8746;49.230;9.220;2023-04-24T07:42:07;99065.75;;;11.07;84.58
17260;BME280;8746;49.230;9.220;2023-04-24T07:44:32;99068.59;;;10.88;84.67
17260;BME280;8746;49.230;9.220;2023-04-24T07:46:58;99062.88;;;10.80;82.43
17260;BME280;8746;49.230;9.220;2023-04-24T07:49:23;99074.03;;;10.85;83.84
17260;BME280;8746;49.230;9.220;2023-04-24T07:51:49;99079.66;;;10.95;81.08
17260;BME280;8746;49.230;9.220;2023-04-24T07:54:15;99074.13;;;10.67;81.16
17260;BME280;8746;49.230;9.220;2023-04-24T07:56:41;99080.22;;;10.68;80.03
17260;BME280;8746;49.230;9.220;2023-04-24T07:59:08;99088.94;;;10.86;80.96
17260;BME280;8746;49.230;9.220;2023-04-24T08:01:35;99085.44;;;11.01;79.87
17260;BME280;8746;49.230;9.220;2023-04-24T08:04:00;99090.16;;;10.96;78.71
17260;BME280;8746;49.230;9.220;2023-04-24T08:06:25;99081.94;;;11.01;80.14
17260;BME280;8746;49.230;9.220;2023-04-24T08:08:58;99084.56;;;11.17;79.09
17260;BME280;8746;49.230;9.220;2023-04-24T08:11:24;99082.78;;;11.33;76.83
17260;BME280;8746;49.230;9.220;2023-04-24T08:13:50;99092.97;;;11.39;78.28
17260;BME280;8746;49.230;9.220;2023-04-24T08:16:15;99098.84;;;11.45;77.28
17260;BME280;8746;49.230;9.220;2023-04-24T08:18:41;99101.75;;;11.40;76.12
17260;BME280;8746;49.230;9.220;2023-04-24T08:21:06;99100.50;;;11.15;74.41
17260;BME280;8746;49.230;9.220;2023-04-24T08:23:31;99100.50;;;11.15;73.72
17260;BME280;8746;49.230;9.220;2023-04-24T08:25:57;99107.16;;;11.22;75.39
17260;BME280;8746;49.230;9.220;2023-04-24T08:28:23;99113.59;;;11.17;76.38
17260;BME280;8746;49.230;9.220;2023-04-24T08:30:48;99112.34;;;11.08;78.23
17260;BME280;8746;49.230;9.220;2023-04-24T08:33:19;99121.97;;;10.93;79.44
17260;BME280;8746;49.230;9.220;2023-04-24T08:35:44;99125.03;;;10.69;82.59
17260;BME280;8746;49.230;9.220;2023-04-24T08:38:10;99130.88;;;10.41;85.39
17260;BME280;8746;49.230;9.220;2023-04-24T08:40:36;99143.50;;;10.01;87.16
17260;BME280;8746;49.230;9.220;2023-04-24T08:43:03;99159.00;;;9.53;90.83
17260;BME280;8746;49.230;9.220;2023-04-24T08:45:29;99144.59;;;9.23;94.00
17260;BME280;8746;49.230;9.220;2023-04-24T08:47:54;99146.69;;;9.17;93.44
17260;BME280;8746;49.230;9.220;2023-04-24T08:50:20;99145.00;;;9.33;93.67
17260;BME280;8746;49.230;9.220;2023-04-24T08:52:47;99142.97;;;9.40;94.58
17260;BME280;8746;49.230;9.220;2023-04-24T08:55:14;99147.84;;;9.48;94.43
17260;BME280;8746;49.230;9.220;2023-04-24T08:57:42;99149.13;;;9.58;95.12
17260;BME280;8746;49.230;9.220;2023-04-24T09:00:10;99141.84;;;9.63;95.03
17260;BME280;8746;49.230;9.220;2023-04-24T09:02:36;99140.91;;;9.64;94.17
17260;BME280;8746;49.230;9.220;2023-04-24T09:05:01;99143.25;;;9.88;95.44
17260;BME280;8746;49.230;9.220;2023-04-24T09:07:29;99137.03;;;10.24;96.02
17260;BME280;8746;49.230;9.220;2023-04-24T09:09:55;99135.63;;;10.68;95.76
17260;BME280;8746;49.230;9.220;2023-04-24T09:12:22;99138.69;;;11.10;93.68
17260;BME280;8746;49.230;9.220;2023-04-24T09:14:47;99151.44;;;11.33;86.66
17260;BME280;8746;49.230;9.220;2023-04-24T09:17:13;99156.53;;;11.52;81.08
17260;BME280;8746;49.230;9.220;2023-04-24T09:19:38;99156.78;;;11.64;80.58
17260;BME280;8746;49.230;9.220;2023-04-24T09:22:07;99159.34;;;11.17;78.99
17260;BME280;8746;49.230;9.220;2023-04-24T09:24:33;99154.31;;;11.45;79.09
17260;BME280;8746;49.230;9.220;2023-04-24T09:27:00;99145.28;;;11.49;79.39
17260;BME280;8746;49.230;9.220;2023-04-24T09:29:29;99159.25;;;11.51;79.13
17260;BME280;8746;49.230;9.220;2023-04-24T09:31:55;99159.09;;;11.38;78.41
17260;BME280;8746;49.230;9.220;2023-04-24T09:34:25;99167.44;;;11.30;79.18
17260;BME280;8746;49.230;9.220;2023-04-24T09:36:51;99160.63;;;11.10;78.54
17260;BME280;8746;49.230;9.220;2023-04-24T09:39:17;99176.13;;;11.00;77.95
17260;BME280;8746;49.230;9.220;2023-04-24T09:41:55;99176.47;;;10.94;76.45
17260;BME280;8746;49.230;9.220;2023-04-24T09:44:26;99187.97;;;11.09;77.56
17260;BME280;8746;49.230;9.220;2023-04-24T09:47:01;99181.75;;;11.26;75.39
17260;BME280;8746;49.230;9.220;2023-04-24T09:49:28;99183.22;;;11.48;75.38
17260;BME280;8746;49.230;9.220;2023-04-24T09:52:08;99194.47;;;11.35;73.41
17260;BME280;8746;49.230;9.220;2023-04-24T09:54:34;99201.50;;;11.51;73.09
17260;BME280;8746;49.230;9.220;2023-04-24T09:57:01;99190.72;;;12.32;69.88
17260;BME280;8746;49.230;9.220;2023-04-24T09:59:27;99183.50;;;12.20;68.90
17260;BME280;8746;49.230;9.220;2023-04-24T10:01:52;99190.78;;;12.16;70.37
17260;BME280;8746;49.230;9.220;2023-04-24T10:04:19;99189.31;;;11.64;68.96
17260;BME280;8746;49.230;9.220;2023-04-24T10:06:46;99189.94;;;11.37;72.04
17260;BME280;8746;49.230;9.220;2023-04-24T10:09:12;99195.28;;;11.04;72.35
17260;BME280;8746;49.230;9.220;2023-04-24T10:11:42;99195.53;;;10.99;73.30
17260;BME280;8746;49.230;9.220;2023-04-24T10:14:10;99207.94;;;10.97;73.54
17260;BME280;8746;49.230;9.220;2023-04-24T10:16:36;99216.50;;;11.02;73.97
17260;BME280;8746;49.230;9.220;2023-04-24T10:19:02;99207.56;;;11.05;74.31
17260;BME280;8746;49.230;9.220;2023-04-24T10:21:28;99224.31;;;11.04;75.40
17260;BME280;8746;49.230;9.220;2023-04-24T10:23:54;99219.88;;;11.04;73.93
17260;BME280;8746;49.230;9.220;2023-04-24T10:26:20;99230.41;;;11.22;75.92
17260;BME280;8746;49.230;9.220;2023-04-24T10:28:47;99235.13;;;10.99;75.44
17260;BME280;8746;49.230;9.220;2023-04-24T10:31:14;99228.19;;;10.81;75.77
17260;BME280;8746;49.230;9.220;2023-04-24T10:33:43;99233.66;;;10.94;75.40
17260;BME280;8746;49.230;9.220;2023-04-24T10:36:11;99232.81;;;10.93;75.66
17260;BME280;8746;49.230;9.220;2023-04-24T10:38:39;99238.97;;;11.10;73.59
17260;BME280;8746;49.230;9.220;2023-04-24T10:41:11;99242.91;;;11.18;72.52
17260;BME280;8746;49.230;9.220;2023-04-24T10:43:45;99239.50;;;11.48;72.71
17260;BME280;8746;49.230;9.220;2023-04-24T10:46:16;99238.22;;;12.03;69.30
17260;BME280;8746;49.230;9.220;2023-04-24T10:48:52;99231.19;;;12.63;67.30
17260;BME280;8746;49.230;9.220;2023-04-24T10:51:26;99229.53;;;12.91;65.47
17260;BME280;8746;49.230;9.220;2023-04-24T10:54:27;99222.19;;;13.53;65.18
17260;BME280;8746;49.230;9.220;2023-04-24T10:56:53;99227.09;;;13.59;63.48
17260;BME280;8746;49.230;9.220;2023-04-24T10:59:26;99227.44;;;13.25;63.42
17260;BME280;8746;49.230;9.220;2023-04-24T11:01:53;99224.03;;;12.80;65.21
17260;BME280;8746;49.230;9.220;2023-04-24T11:04:29;99231.84;;;12.67;63.22
17260;BME280;8746;49.230;9.220;2023-04-24T11:06:55;99224.78;;;12.82;65.06
17260;BME280;8746;49.230;9.220;2023-04-24T11:09:21;99236.72;;;12.30;64.34
17260;BME280;8746;49.230;9.220;2023-04-24T11:11:46;99235.75;;;12.00;65.55
17260;BME280;8746;49.230;9.220;2023-04-24T11:14:16;99244.38;;;11.88;66.02
17260;BME280;8746;49.230;9.220;2023-04-24T11:16:43;99258.53;;;11.55;64.68
17260;BME280;8746;49.230;9.220;2023-04-24T11:22:03;99265.13;;;11.30;66.60
17260;BME280;8746;49.230;9.220;2023-04-24T11:24:38;99263.03;;;11.03;67.47
17260;BME280;8746;49.230;9.220;2023-04-24T11:29:44;99301.84;;;10.14;79.11
17260;BME280;8746;49.230;9.220;2023-04-24T11:35:05;99305.84;;;10.03;85.30
17260;BME280;8746;49.230;9.220;2023-04-24T11:37:38;99308.91;;;10.13;84.59
17260;BME280;8746;49.230;9.220;2023-04-24T11:40:06;99316.16;;;10.45;84.62
17260;BME280;8746;49.230;9.220;2023-04-24T11:42:43;99309.41;;;10.74;80.94
17260;BME280;8746;49.230;9.220;2023-04-24T11:45:17;99308.22;;;10.97;80.51
17260;BME280;8746;49.230;9.220;2023-04-24T11:47:44;99301.88;;;11.51;79.63
17260;BME280;8746;49.230;9.220;2023-04-24T11:50:12;99291.38;;;11.99;77.57
17260;BME280;8746;49.230;9.220;2023-04-24T11:52:42;99267.16;;;13.25;74.13
17260;BME280;8746;49.230;9.220;2023-04-24T11:55:28;99270.19;;;13.34;70.62
17260;BME280;8746;49.230;9.220;2023-04-24T11:57:56;99279.84;;;13.20;71.33
17260;BME280;8746;49.230;9.220;2023-04-24T12:00:23;99277.06;;;13.65;69.99
17260;BME280;8746;49.230;9.220;2023-04-24T12:02:49;99275.44;;;14.04;65.25
17260;BME280;8746;49.230;9.220;2023-04-24T12:05:26;99272.50;;;14.09;62.93
17260;BME280;8746;49.230;9.220;2023-04-24T12:07:53;99277.72;;;13.69;63.21
17260;BME280;8746;49.230;9.220;2023-04-24T12:10:29;99274.94;;;13.14;66.59
17260;BME280;8746;49.230;9.220;2023-04-24T12:12:56;99293.44;;;12.99;66.72
17260;BME280;8746;49.230;9.220;2023-04-24T12:15:22;99284.81;;;12.81;67.32
17260;BME280;8746;49.230;9.220;2023-04-24T12:17:50;99290.03;;;12.53;68.22
17260;BME280;8746;49.230;9.220;2023-04-24T12:20:16;99295.25;;;12.24;71.09
17260;BME280;8746;49.230;9.220;2023-04-24T12:22:58;99318.59;;;11.51;75.50
17260;BME280;8746;49.230;9.220;2023-04-24T12:25:25;99325.13;;;11.11;90.42
17260;BME280;8746;49.230;9.220;2023-04-24T12:28:08;99334.78;;;10.59;92.98
17260;BME280;8746;49.230;9.220;2023-04-24T12:30:47;99334.00;;;10.39;91.98
17260;BME280;8746;49.230;9.220;2023-04-24T12:33:18;99325.19;;;10.76;95.56
17260;BME280;8746;49.230;9.220;2023-04-24T12:35:44;99320.81;;;10.92;89.41
17260;BME280;8746;49.230;9.220;2023-04-24T12:38:13;99320.75;;;11.27;88.74
17260;BME280;8746;49.230;9.220;2023-04-24T12:40:39;99303.44;;;11.55;83.31
17260;BME280;8746;49.230;9.220;2023-04-24T12:43:17;99304.38;;;12.79;82.08
17260;BME280;8746;49.230;9.220;2023-04-24T12:45:43;99305.59;;;14.03;75.01
17260;BME280;8746;49.230;9.220;2023-04-24T12:48:10;99297.53;;;14.05;70.34
17260;BME280;8746;49.230;9.220;2023-04-24T12:50:35;99288.38;;;13.96;69.09
17260;BME280;8746;49.230;9.220;2023-04-24T12:53:01;99284.84;;;13.68;71.88
17260;BME280;8746;49.230;9.220;2023-04-24T12:55:26;99288.72;;;14.72;68.16
17260;BME280;8746;49.230;9.220;2023-04-24T12:57:51;99291.44;;;15.48;61.94
17260;BME280;8746;49.230;9.220;2023-04-24T13:00:18;99289.34;;;14.08;63.14
17260;BME280;8746;49.230;9.220;2023-04-24T13:02:44;99296.00;;;13.01;67.38
17260;BME280;8746;49.230;9.220;2023-04-24T13:05:09;99284.66;;;13.13;69.53
17260;BME280;8746;49.230;9.220;2023-04-24T13:07:36;99278.31;;;13.16;67.15
17260;BME280;8746;49.230;9.220;2023-04-24T13:10:01;99295.50;;;12.80;68.81
17260;BME280;8746;49.230;9.220;2023-04-24T13:12:27;99284.69;;;12.54;67.81
17260;BME280;8746;49.230;9.220;2023-04-24T13:14:53;99286.97;;;12.60;69.36